Latest Coastal Weather Observations for Lombadina

IDW60701

Issued at 4:53 am WST Sunday 25 September 2016 (issued every 10 minutes, with the page automatically refreshed every 10 minutes)

About coastal observations | Map of coastal stations | Coastal observations for WA | Marine services | Other Formats
Station Details ID: 503016 Name: LOMBADINA AIRSTRIP Lat: -16.52 Lon: 122.92 Height: 42.0 m
Data from the previous 72 hours. | See also: Recent months for locations in Western Australia
Date/Time
WST
Temp
°C
Wind Pressure Rain since
9am
mm
Weather Cloud Vis
km
Sea
Height
m
Swell
Dir  Spd
kts
Gust
kts
hPa Trend Height
m
Period
s
Dir
25/04:30am 21.6 W 1 2 1008.9 - 0.0 - - 10 - - - -
25/04:00am 22.5 WSW 3 5 1008.4 - 0.0 - - 10 - - - -
25/03:30am 22.3 WSW 2 4 1008.4 - 0.0 - - 10 - - - -
25/03:00am 22.1 WNW 1 2 1008.5 - 0.0 - - 10 - - - -
25/02:30am 23.4 W 1 4 1008.4 - 0.0 - - 10 - - - -
25/02:00am 23.4 WSW 3 7 1008.5 - 0.0 - - 10 - - - -
25/01:30am 23.4 SW 4 7 1008.6 - 0.0 - - 10 - - - -
25/01:00am 23.3 WSW 5 8 1008.8 - 0.0 - - 10 - - - -
25/12:30am 23.4 WSW 4 6 1008.9 - 0.0 - - 10 - - - -
25/12:00am 23.7 WSW 4 7 1009.2 - 0.0 - - 10 - - - -
 
Date/Time
WST
Temp
°C
Wind Pressure Rain since
9am
mm
Weather Cloud Vis
km
Sea
Height
m
Swell
Dir  Spd
kts
Gust
kts
hPa Trend Height
m
Period
s
Dir
24/11:30pm 23.8 WSW 3 6 1009.5 - 0.0 - - 10 - - - -
24/11:00pm 24.2 WSW 4 6 1009.6 - 0.0 - - 10 - - - -
24/10:30pm 24.3 WSW 4 6 1009.8 - 0.0 - - 10 - - - -
24/10:00pm 24.4 WSW 3 5 1009.9 - 0.0 - - 10 - - - -
24/09:30pm 24.3 WSW 3 5 1010.0 - 0.0 - - 10 - - - -
24/09:00pm 25.0 WSW 4 7 1010.1 - 0.0 - - 10 - - - -
24/08:30pm 25.2 WSW 4 7 1010.0 - 0.0 - - 10 - - - -
24/08:00pm 25.4 WSW 4 9 1009.7 - 0.0 - - 10 - - - -
24/07:30pm 25.6 WSW 5 9 1009.3 - 0.0 - - 10 - - - -
24/07:00pm 25.8 WSW 5 8 1009.1 - 0.0 - - 10 - - - -
24/06:30pm 26.0 WSW 4 9 1008.9 - 0.0 - - 10 - - - -
24/06:00pm 26.5 WSW 5 11 1008.5 - 0.0 - - 10 - - - -
24/05:30pm 27.3 W 6 11 1008.3 - 0.0 - Partly cloudy 10 - - - -
24/05:00pm 28.0 W 9 13 1008.0 - 0.0 - - 10 - - - -
24/04:30pm 28.5 W 7 15 1007.9 - 0.0 - - 10 - - - -
24/04:00pm 28.8 W 10 16 1007.5 - 0.0 - - 10 - - - -
24/03:30pm 29.1 W 9 16 1007.6 - 0.0 - - 10 - - - -
24/03:00pm 29.2 W 10 18 1007.3 - 0.0 - - 10 - - - -
24/02:30pm 29.3 W 11 16 1007.5 - 0.0 - - 10 - - - -
24/02:00pm 30.5 W 10 16 1007.4 - 0.0 - - 10 - - - -
24/01:30pm 29.7 W 11 18 1007.7 - 0.0 - - 10 - - - -
24/01:00pm 29.7 W 10 16 1008.0 - 0.0 - - 10 - - - -
24/12:30pm 29.9 W 9 15 1008.3 - 0.0 - - 10 - - - -
24/12:00pm 29.8 W 10 17 1008.8 - 0.0 - - 10 - - - -
24/11:30am 29.4 W 11 17 1009.2 - 0.0 - - 10 - - - -
24/11:00am 29.3 W 9 17 1009.8 - 0.0 - - 10 - - - -
24/10:30am 29.7 W 8 16 1010.3 - 0.0 - Partly cloudy 10 - - - -
24/10:00am 29.6 W 8 16 1010.6 - 0.0 - - 10 - - - -
24/09:30am 29.0 W 7 13 1010.9 - 0.0 - - 10 - - - -
24/09:00am 29.6 WSW 6 12 1011.2 - 0.0 - - 10 - - - -
24/08:30am 28.7 WSW 5 10 1011.2 - 0.0 - Partly cloudy 10 - - - -
24/08:00am 27.4 WSW 6 9 1011.3 - 0.0 - Partly cloudy 10 - - - -
24/07:30am 26.0 WSW 5 8 1011.1 - 0.0 - - 10 - - - -
24/07:00am 24.4 SW 2 3 1010.9 - 0.0 - - 10 - - - -
24/06:30am 23.2 SW 2 3 1010.5 - 0.0 - - 10 - - - -
24/06:00am 22.4 SW 1 3 1010.1 - 0.0 - - 9 - - - -
24/05:55am 22.3 SW 1 3 1010.1 - 0.0 - - 8 - - - -
24/05:30am 21.9 CALM 0 2 1009.9 - 0.0 - - 4 - - - -
24/05:26am 22.0 CALM 0 2 1009.8 - 0.0 - - 7 - - - -
24/05:02am 21.9 SW 1 2 1009.7 - 0.0 - - 4 - - - -
24/05:00am 21.9 SW 1 2 1009.7 - 0.0 - - 5 - - - -
24/04:30am 21.7 CALM 0 1 1009.5 - 0.0 - - 10 - - - -
24/04:00am 22.4 WSW 1 3 1009.3 - 0.0 - - 9 - - - -
24/03:30am 22.7 WSW 1 3 1009.2 - 0.0 - - 10 - - - -
24/03:00am 22.9 W 2 4 1009.2 - 0.0 - - 10 - - - -
24/02:30am 22.9 WSW 1 4 1009.4 - 0.0 - - 10 - - - -
24/02:00am 23.0 WSW 2 4 1009.3 - 0.0 - Partly cloudy 10 - - - -
24/01:30am 23.1 WSW 3 5 1009.4 - 0.0 - - 10 - - - -
24/01:00am 23.1 WSW 3 6 1009.5 - 0.0 - - 10 - - - -
24/12:30am 23.3 WSW 3 7 1009.7 - 0.0 - - 10 - - - -
24/12:00am 23.4 WSW 4 7 1009.8 - 0.0 - - 10 - - - -
 
Date/Time
WST
Temp
°C
Wind Pressure Rain since
9am
mm
Weather Cloud Vis
km
Sea
Height
m
Swell
Dir  Spd
kts
Gust
kts
hPa Trend Height
m
Period
s
Dir
23/11:30pm 23.6 WSW 4 7 1009.9 - 0.0 - - 10 - - - -
23/11:00pm 23.8 SW 4 9 1010.0 - 0.0 - - 10 - - - -
23/10:30pm 24.0 SW 4 6 1010.2 - 0.0 - - 10 - - - -
23/10:00pm 24.3 SW 4 7 1010.4 - 0.0 - - 10 - - - -
23/09:30pm 24.7 WSW 4 8 1010.2 - 0.0 - - 10 - - - -
23/09:00pm 25.0 SW 4 8 1010.2 - 0.0 - - 10 - - - -
23/08:30pm 25.2 WSW 5 9 1010.1 - 0.0 - - 10 - - - -
23/08:00pm 25.4 WSW 6 11 1009.8 - 0.0 - - 10 - - - -
23/07:30pm 25.7 WSW 6 13 1009.5 - 0.0 - - 10 - - - -
23/07:00pm 25.8 WSW 5 10 1009.1 - 0.0 - - 10 - - - -
23/06:30pm 26.1 WSW 5 11 1008.7 - 0.0 - - 10 - - - -
23/06:00pm 26.6 WSW 6 11 1008.4 - 0.0 - - 10 - - - -
23/05:30pm 27.3 WSW 7 13 1008.2 - 0.0 - - 10 - - - -
23/05:00pm 28.2 WSW 6 12 1008.0 - 0.0 - - 10 - - - -
23/04:30pm 28.9 WSW 9 16 1007.8 - 0.0 - - 10 - - - -
23/04:00pm 29.6 W 9 16 1007.9 - 0.0 - - 10 - - - -
23/03:30pm 29.6 WSW 11 18 1007.9 - 0.0 - - 10 - - - -
23/03:00pm 30.7 WSW 11 20 1007.8 - 0.0 - - 10 - - - -
23/02:30pm 30.5 W 10 16 1007.7 - 0.0 - - 10 - - - -
23/02:00pm 30.8 W 10 17 1007.9 - 0.0 - - 10 - - - -
23/01:30pm 31.3 W 10 15 1008.1 - 0.0 - - 10 - - - -
23/01:00pm 31.7 W 10 15 1008.4 - 0.0 - - 10 - - - -
23/12:30pm 31.3 W 9 15 1008.8 - 0.0 - - 10 - - - -
23/12:00pm 31.0 W 9 15 1009.2 - 0.0 - - 10 - - - -
23/11:30am 30.7 WNW 8 16 1009.8 - 0.0 - - 10 - - - -
23/11:00am 31.0 WNW 7 13 1010.3 - 0.0 - - 10 - - - -
23/10:30am 31.7 WNW 6 11 1010.7 - 0.0 - - 10 - - - -
23/10:00am 32.6 ENE 9 22 1010.8 - 0.0 - - 10 - - - -
23/09:30am 31.6 ENE 5 10 1011.1 - 0.0 - - 10 - - - -
23/09:00am 31.3 SW 4 9 1011.3 - 0.0 - - 10 - - - -
23/08:30am 30.1 SW 4 9 1011.8 - 0.0 - - 10 - - - -
23/08:00am 28.7 SSW 5 11 1011.9 - 0.0 - - 10 - - - -
23/07:30am 27.5 SW 7 12 1011.3 - 0.0 - - 10 - - - -
23/07:00am 25.7 SW 5 9 1011.1 - 0.0 - - 10 - - - -
23/06:30am 24.1 SW 3 6 1011.0 - 0.0 - - 10 - - - -
23/06:00am 22.9 SW 3 5 1010.7 - 0.0 - - 10 - - - -
23/05:30am 22.4 SW 4 7 1010.5 - 0.0 - - 10 - - - -
23/05:00am 22.1 SW 3 4 1010.3 - 0.0 - - 10 - - - -
23/04:30am 22.2 SW 3 4 1010.0 - 0.0 - - 10 - - - -
23/04:00am 22.9 WSW 3 4 1009.7 - 0.0 - - 10 - - - -
23/03:30am 23.0 WSW 3 6 1009.4 - 0.0 - - 10 - - - -
23/03:00am 21.7 W 1 3 1009.3 - 0.0 - - 10 - - - -
23/02:30am 22.8 WSW 1 3 1009.2 - 0.0 - - 10 - - - -
23/02:00am 23.1 SW 2 3 1009.5 - 0.0 - - 10 - - - -
23/01:30am 23.7 SW 3 5 1009.7 - 0.0 - - 10 - - - -
23/01:00am 24.4 SW 3 5 1009.9 - 0.0 - - 10 - - - -
23/12:30am 25.3 WSW 3 8 1010.3 - 0.0 - - 10 - - - -
23/12:00am 25.0 WSW 3 6 1010.5 - 0.0 - - 10 - - - -
 
Date/Time
WST
Temp
°C
Wind Pressure Rain since
9am
mm
Weather Cloud Vis
km
Sea
Height
m
Swell
Dir  Spd
kts
Gust
kts
hPa Trend Height
m
Period
s
Dir
22/11:30pm 25.1 WNW 2 4 1010.7 - 0.0 - - 10 - - - -
22/11:00pm 24.4 WNW 3 5 1010.7 - 0.0 - - 10 - - - -
22/10:30pm 24.4 WNW 1 3 1010.8 - 0.0 - - 10 - - - -
22/10:00pm 25.1 WNW 1 2 1010.8 - 0.0 - - 10 - - - -
22/09:30pm 25.3 WNW 2 3 1010.9 - 0.0 - - 10 - - - -
22/09:00pm 25.7 W 1 3 1011.1 - 0.0 - - 10 - - - -
22/08:30pm 26.6 W 2 4 1011.0 - 0.0 - - 10 - - - -
22/08:00pm 25.8 SW 2 4 1011.0 - 0.0 - - 10 - - - -
22/07:30pm 26.3 WSW 3 4 1010.9 - 0.0 - - 10 - - - -
22/07:00pm 26.6 W 3 4 1010.5 - 0.0 - - 10 - - - -
22/06:30pm 27.2 NW 2 3 1010.2 - 0.0 - - 10 - - - -
22/06:00pm 27.8 WNW 3 5 1009.8 - 0.0 - - 10 - - - -
22/05:30pm 28.6 WNW 5 7 1009.6 - 0.0 - - 10 - - - -
22/05:00pm 29.3 NW 6 9 1009.6 - 0.0 - - 10 - - - -
22/04:30pm 30.1 WNW 5 9 1009.3 - 0.0 - - 10 - - - -
22/04:00pm 30.5 WNW 7 11 1009.4 - 0.0 - - 10 - - - -
22/03:30pm 31.7 WNW 7 11 1009.3 - 0.0 - - 10 - - - -
22/03:00pm 32.7 WNW 8 12 1009.4 - 0.0 - - 10 - - - -
22/02:30pm 33.1 W 7 11 1009.5 - 0.0 - - 10 - - - -
22/02:00pm 32.3 WNW 7 11 1009.9 - 0.0 - - 10 - - - -
22/01:30pm 32.2 WNW 7 10 1010.2 - 0.0 - - 10 - - - -
22/01:00pm 32.9 NW 6 11 1010.4 - 0.0 - - 10 - - - -
22/12:30pm 32.6 WNW 8 11 1011.0 - 0.0 - - 10 - - - -
22/12:00pm 32.2 NW 7 11 1011.3 - 0.0 - - 10 - - - -
22/11:30am 31.2 NW 9 14 1011.6 - 0.0 - - 10 - - - -
22/11:00am 32.3 NNW 9 11 1011.9 - 0.0 - - 10 - - - -
22/10:30am 31.6 NNW 5 9 1012.3 - 0.0 - - 10 - - - -
22/10:00am 33.5 E 4 8 1012.4 - 0.0 - - 10 - - - -
22/09:30am 32.8 ESE 5 9 1012.7 - 0.0 - Partly cloudy 10 - - - -
22/09:00am 32.6 SE 5 9 1012.6 - - - Partly cloudy 10 - - - -
22/08:30am 30.9 SSE 5 10 1012.8 - - - Partly cloudy 10 - - - -
22/08:00am 29.5 SE 5 8 1012.7 - - - Partly cloudy 10 - - - -
22/07:30am 28.5 SE 5 10 1012.6 - - - Partly cloudy 10 - - - -
22/07:00am 26.8 SE 4 8 1012.4 - - - Partly cloudy 10 - - - -
22/06:30am 24.7 ESE 5 8 1012.0 - - - Partly cloudy 10 - - - -
22/06:00am 23.9 ESE 5 8 1011.6 - - - Mostly clear 10 - - - -
22/05:30am 23.5 ESE 4 7 1011.3 - - - Partly cloudy 10 - - - -
22/05:00am 22.5 SSE 3 6 1011.0 - - - Partly cloudy 10 - - - -

Other Formats:

Comma delimited format used in spreadsheet applications
http://www.bom.gov.au/fwo/IDW60701/IDW60701.99206.axf

JavaScript Object Notation format (JSON) in row-major order
http://www.bom.gov.au/fwo/IDW60701/IDW60701.99206.json